createdAt,value
2022-10-28T00:01:22.037Z,14.10
2022-10-28T00:03:56.222Z,14.10
2022-10-28T00:06:30.339Z,14.10
2022-10-28T00:08:59.149Z,14.10
2022-10-28T00:11:30.791Z,14.00
2022-10-28T00:14:02.200Z,14.00
2022-10-28T00:16:35.327Z,13.90
2022-10-28T00:19:04.631Z,13.90
2022-10-28T00:21:35.307Z,13.90
2022-10-28T00:24:02.835Z,13.90
2022-10-28T00:26:36.418Z,13.90
2022-10-28T00:29:07.563Z,13.80
2022-10-28T00:31:37.132Z,13.80
2022-10-28T00:34:06.884Z,13.80
2022-10-28T00:36:37.677Z,13.80
2022-10-28T00:39:21.508Z,13.80
2022-10-28T00:41:52.923Z,13.70
2022-10-28T00:44:58.479Z,13.70
2022-10-28T00:47:43.848Z,13.70
2022-10-28T00:50:44.811Z,13.80
2022-10-28T00:53:19.575Z,13.80
2022-10-28T00:55:47.758Z,13.70
2022-10-28T00:58:15.936Z,13.80
2022-10-28T01:00:43.209Z,13.80
2022-10-28T01:03:10.372Z,13.80
2022-10-28T01:05:41.721Z,13.80
2022-10-28T01:08:09.589Z,13.80
2022-10-28T01:11:20.481Z,13.70
2022-10-28T01:14:05.726Z,13.80
2022-10-28T01:17:11.366Z,13.80
2022-10-28T01:20:15.526Z,13.80
2022-10-28T01:23:16.589Z,13.80
2022-10-28T01:26:03.332Z,13.80
2022-10-28T01:28:58.141Z,13.80
2022-10-28T01:31:50.776Z,13.80
2022-10-28T01:34:31.174Z,13.80
2022-10-28T01:37:12.722Z,13.80
2022-10-28T01:40:08.948Z,13.80
2022-10-28T01:43:08.823Z,13.80
2022-10-28T01:46:05.053Z,13.80
2022-10-28T01:48:45.451Z,13.80
2022-10-28T01:51:24.289Z,13.80
2022-10-28T01:53:55.569Z,13.80
2022-10-28T01:56:29.408Z,13.80
2022-10-28T01:58:59.378Z,13.80
2022-10-28T02:01:29.222Z,13.80
2022-10-28T02:03:57.599Z,13.90
2022-10-28T02:06:28.920Z,13.90
2022-10-28T02:09:25.167Z,13.80
2022-10-28T02:12:23.981Z,13.80
2022-10-28T02:15:12.848Z,13.80
2022-10-28T02:18:23.096Z,13.90
2022-10-28T02:21:21.130Z,13.80
2022-10-28T02:23:57.315Z,13.80
2022-10-28T02:26:42.486Z,13.80
2022-10-28T02:29:41.771Z,13.80
2022-10-28T02:32:17.184Z,13.80
2022-10-28T02:34:50.640Z,13.80
2022-10-28T02:37:27.976Z,14.00
2022-10-28T02:40:04.390Z,13.90
2022-10-28T02:42:37.358Z,13.90
2022-10-28T02:45:19.367Z,13.90
2022-10-28T02:47:57.793Z,13.90
2022-10-28T02:50:37.369Z,13.90
2022-10-28T02:53:13.408Z,13.90
2022-10-28T02:55:43.672Z,13.90
2022-10-28T02:58:11.486Z,13.90
2022-10-28T03:00:44.910Z,13.90
2022-10-28T03:03:12.636Z,13.90
2022-10-28T03:05:39.913Z,13.90
2022-10-28T03:08:07.237Z,13.90
2022-10-28T03:10:35.339Z,13.80
2022-10-28T03:13:02.810Z,13.90
2022-10-28T03:15:30.072Z,14.00
2022-10-28T03:17:57.342Z,14.00
2022-10-28T03:20:24.660Z,14.00
2022-10-28T03:22:52.380Z,14.00
2022-10-28T03:25:19.880Z,14.00
2022-10-28T03:27:47.166Z,13.90
2022-10-28T03:30:14.677Z,13.90
2022-10-28T03:32:42.902Z,14.00
2022-10-28T03:35:10.367Z,13.90
2022-10-28T03:37:37.927Z,13.80
2022-10-28T03:40:07.922Z,13.90
2022-10-28T03:42:37.558Z,13.90
2022-10-28T03:45:08.413Z,13.80
2022-10-28T03:47:36.483Z,13.80
2022-10-28T03:50:04.020Z,13.80
2022-10-28T03:52:31.228Z,13.80
2022-10-28T03:54:58.479Z,13.80
2022-10-28T03:57:25.769Z,13.80
2022-10-28T03:59:53.183Z,13.80
2022-10-28T04:02:20.538Z,13.90
2022-10-28T04:04:47.951Z,13.70
2022-10-28T04:07:15.151Z,13.70
2022-10-28T04:09:42.861Z,13.70
2022-10-28T04:12:11.494Z,13.60
2022-10-28T04:14:38.722Z,13.60
2022-10-28T04:17:05.914Z,13.60
2022-10-28T04:19:33.148Z,13.60
2022-10-28T04:22:00.326Z,13.60
2022-10-28T04:24:27.632Z,13.60
2022-10-28T04:26:54.823Z,13.50
2022-10-28T04:29:21.945Z,13.50
2022-10-28T04:31:52.157Z,13.40
2022-10-28T04:34:19.671Z,13.40
2022-10-28T04:36:46.837Z,13.30
2022-10-28T04:39:14.011Z,13.30
2022-10-28T04:41:41.274Z,13.30
2022-10-28T04:44:08.376Z,13.30
2022-10-28T04:46:35.724Z,13.30
2022-10-28T04:49:02.971Z,13.30
2022-10-28T04:51:30.213Z,13.30
2022-10-28T04:53:57.523Z,13.30
2022-10-28T04:56:24.695Z,13.30
2022-10-28T04:58:51.846Z,13.30
2022-10-28T05:01:19.089Z,13.20
2022-10-28T05:03:46.377Z,13.20
2022-10-28T05:06:13.602Z,13.20
2022-10-28T05:08:40.799Z,13.20
2022-10-28T05:11:08.114Z,13.20
2022-10-28T05:13:35.469Z,13.10
2022-10-28T05:16:02.762Z,13.10
2022-10-28T05:18:29.977Z,13.10
2022-10-28T05:20:57.296Z,13.10
2022-10-28T05:23:28.516Z,13.10
2022-10-28T05:25:58.151Z,13.10
2022-10-28T05:28:25.459Z,13.10
2022-10-28T05:30:52.841Z,13.10
2022-10-28T05:33:20.183Z,13.10
2022-10-28T05:35:47.594Z,13.10
2022-10-28T05:38:15.076Z,13.50
2022-10-28T05:40:42.797Z,13.10
2022-10-28T05:43:10.892Z,13.10
2022-10-28T05:45:38.305Z,13.00
2022-10-28T05:48:06.189Z,13.00
2022-10-28T05:50:33.465Z,13.00
2022-10-28T05:53:00.712Z,13.00
2022-10-28T05:55:29.589Z,13.10
2022-10-28T05:57:57.961Z,13.10
2022-10-28T06:00:27.530Z,13.10
2022-10-28T06:03:04.059Z,13.10
2022-10-28T06:05:31.613Z,13.10
2022-10-28T06:07:59.003Z,13.10
2022-10-28T06:10:26.468Z,13.20
2022-10-28T06:12:55.284Z,13.10
2022-10-28T06:15:23.034Z,13.20
2022-10-28T06:17:50.206Z,13.20
2022-10-28T06:20:18.524Z,13.10
2022-10-28T06:22:51.145Z,13.20
2022-10-28T06:25:20.698Z,13.20
2022-10-28T06:27:58.796Z,13.30
2022-10-28T06:30:26.898Z,13.20
2022-10-28T06:32:57.452Z,13.30
2022-10-28T06:35:24.674Z,13.30
2022-10-28T06:37:56.392Z,13.30
2022-10-28T06:40:25.527Z,13.30
2022-10-28T06:43:00.965Z,13.40
2022-10-28T06:45:30.483Z,13.40
2022-10-28T06:48:05.695Z,13.40
2022-10-28T06:50:36.719Z,13.50
2022-10-28T06:53:04.631Z,13.50
2022-10-28T06:55:31.821Z,13.50
2022-10-28T06:58:01.467Z,13.60
2022-10-28T07:03:03.029Z,13.70
2022-10-28T07:05:30.594Z,13.70
2022-10-28T07:07:57.786Z,13.80
2022-10-28T07:10:25.060Z,13.80
2022-10-28T07:12:53.800Z,13.90
2022-10-28T07:15:21.584Z,13.90
2022-10-28T07:17:56.721Z,13.90
2022-10-28T07:20:26.277Z,14.00
2022-10-28T07:23:01.510Z,14.50
2022-10-28T07:25:30.621Z,14.10
2022-10-28T07:28:01.181Z,14.10
2022-10-28T07:30:28.935Z,14.20
2022-10-28T07:32:58.587Z,14.30
2022-10-28T07:35:25.777Z,14.30
2022-10-28T07:37:53.404Z,14.40
2022-10-28T07:40:21.705Z,14.50
2022-10-28T07:42:49.019Z,14.60
2022-10-28T07:45:17.002Z,14.70
2022-10-28T07:47:45.135Z,14.80
2022-10-28T07:50:13.119Z,14.90
2022-10-28T07:52:40.248Z,15.00
2022-10-28T07:55:08.367Z,15.10
2022-10-28T07:57:35.760Z,15.10
2022-10-28T08:00:05.221Z,15.20
2022-10-28T08:02:37.928Z,15.30
2022-10-28T08:05:05.794Z,15.40
2022-10-28T08:07:36.203Z,15.40
2022-10-28T08:10:06.812Z,15.50
2022-10-28T08:12:34.442Z,15.60
2022-10-28T08:15:02.747Z,15.70
2022-10-28T08:17:30.135Z,15.80
2022-10-28T08:19:57.672Z,15.90
2022-10-28T08:22:24.950Z,16.00
2022-10-28T08:24:52.131Z,16.10
2022-10-28T08:27:19.275Z,16.20
2022-10-28T08:29:46.543Z,16.20
2022-10-28T08:32:13.853Z,16.30
2022-10-28T08:34:43.500Z,16.20
2022-10-28T08:37:11.239Z,16.30
2022-10-28T08:39:38.445Z,16.20
2022-10-28T08:42:48.475Z,15.80
2022-10-28T08:45:43.974Z,16.30
2022-10-28T08:48:31.538Z,16.10
2022-10-28T08:51:25.215Z,16.10
2022-10-28T08:53:59.170Z,16.10
2022-10-28T08:56:37.805Z,16.10
2022-10-28T08:59:07.578Z,16.10
2022-10-28T09:01:48.356Z,15.90
2022-10-28T09:04:42.718Z,16.30
2022-10-28T09:07:19.329Z,16.40
2022-10-28T09:09:48.671Z,16.50
2022-10-28T09:12:55.268Z,16.60
2022-10-28T09:15:55.945Z,16.60
2022-10-28T09:18:50.567Z,16.70
2022-10-28T09:21:52.984Z,16.80
2022-10-28T09:24:42.009Z,16.90
2022-10-28T09:27:29.890Z,16.90
2022-10-28T09:30:21.407Z,16.90
2022-10-28T09:33:05.821Z,17.00
2022-10-28T09:35:41.510Z,17.10
2022-10-28T09:38:30.102Z,17.20
2022-10-28T09:41:00.733Z,17.30
2022-10-28T09:43:38.028Z,17.30
2022-10-28T09:46:15.373Z,17.40
2022-10-28T09:48:48.675Z,17.50
2022-10-28T09:51:44.842Z,17.60
2022-10-28T09:54:13.652Z,17.70
2022-10-28T09:56:41.520Z,17.70
2022-10-28T09:59:14.775Z,17.90
2022-10-28T10:01:45.798Z,18.00
2022-10-28T10:04:25.707Z,18.10
2022-10-28T10:07:12.464Z,18.20
2022-10-28T10:09:40.565Z,18.40
2022-10-28T10:12:12.880Z,18.50
2022-10-28T10:14:47.604Z,18.50
2022-10-28T10:17:42.229Z,18.60
2022-10-28T10:20:13.875Z,18.60
2022-10-28T10:22:44.402Z,18.60
2022-10-28T10:25:20.762Z,18.70
2022-10-28T10:27:55.539Z,18.70
2022-10-28T10:30:36.519Z,18.80
2022-10-28T10:33:05.745Z,18.80
2022-10-28T10:35:36.558Z,18.80
2022-10-28T10:38:06.785Z,18.80
2022-10-28T10:40:38.806Z,18.50
2022-10-28T10:43:25.327Z,19.30
2022-10-28T10:46:04.414Z,19.50
2022-10-28T10:48:36.646Z,20.10
2022-10-28T10:51:25.215Z,20.60
2022-10-28T10:53:57.241Z,21.20
2022-10-28T10:56:27.986Z,21.90
2022-10-28T10:58:59.882Z,22.20
2022-10-28T11:01:37.048Z,22.80
2022-10-28T11:04:07.775Z,23.00
2022-10-28T11:06:39.703Z,23.40
2022-10-28T11:09:38.375Z,23.50
2022-10-28T11:12:35.576Z,24.20
2022-10-28T11:15:21.506Z,24.20
2022-10-28T11:18:21.357Z,23.70
2022-10-28T11:20:55.325Z,23.60
2022-10-28T11:23:50.450Z,24.00
2022-10-28T11:26:20.225Z,24.20
2022-10-28T11:29:16.614Z,24.20
2022-10-28T11:32:08.913Z,24.20
2022-10-28T11:34:56.630Z,24.20
2022-10-28T11:37:50.132Z,24.50
2022-10-28T11:40:30.843Z,24.40
2022-10-28T11:43:41.568Z,24.20
2022-10-28T11:46:36.223Z,24.40
2022-10-28T11:49:42.138Z,24.80
2022-10-28T11:52:50.094Z,25.10
2022-10-28T11:55:39.500Z,25.70
2022-10-28T11:58:47.912Z,25.70
2022-10-28T12:01:41.723Z,25.10
2022-10-28T12:04:52.985Z,25.30
2022-10-28T12:07:42.640Z,25.80
2022-10-28T12:10:58.614Z,26.70
2022-10-28T12:14:04.791Z,26.30
2022-10-28T12:16:50.881Z,26.40
2022-10-28T12:19:23.939Z,27.00
2022-10-28T12:22:15.221Z,26.90
2022-10-28T12:24:46.097Z,27.10
2022-10-28T12:27:25.850Z,26.80
2022-10-28T12:30:00.204Z,26.80
2022-10-28T12:32:35.393Z,26.60
2022-10-28T12:35:32.792Z,26.40
2022-10-28T12:38:16.113Z,26.60
2022-10-28T12:41:24.797Z,26.50
2022-10-28T12:44:02.235Z,26.40
2022-10-28T12:47:00.324Z,25.90
2022-10-28T12:50:05.033Z,26.30
2022-10-28T12:52:45.154Z,25.90
2022-10-28T12:55:43.225Z,25.60
2022-10-28T12:58:26.072Z,25.80
2022-10-28T13:01:06.631Z,25.80
2022-10-28T13:03:33.909Z,25.90
2022-10-28T13:06:22.174Z,26.30
2022-10-28T13:12:01.182Z,26.50
2022-10-28T13:15:02.796Z,25.90
2022-10-28T13:18:05.660Z,25.40
2022-10-28T13:21:05.958Z,25.20
2022-10-28T13:24:23.132Z,24.90
2022-10-28T13:26:51.070Z,25.30
2022-10-28T13:29:25.880Z,24.60
2022-10-28T13:31:54.471Z,23.80
2022-10-28T13:34:34.152Z,23.40
2022-10-28T13:37:04.634Z,23.80
2022-10-28T13:39:32.662Z,23.90
2022-10-28T13:42:14.919Z,24.30
2022-10-28T13:45:02.317Z,24.50
2022-10-28T13:47:33.978Z,24.00
2022-10-28T13:50:10.103Z,24.00
2022-10-28T13:52:42.601Z,24.50
2022-10-28T13:55:43.654Z,25.00
2022-10-28T13:58:24.514Z,25.40
2022-10-28T14:00:53.545Z,25.60
2022-10-28T14:03:27.817Z,26.10
2022-10-28T14:06:00.904Z,26.20
2022-10-28T14:08:40.490Z,25.80
2022-10-28T14:11:24.019Z,25.70
2022-10-28T14:14:00.543Z,25.70
2022-10-28T14:16:37.912Z,25.70
2022-10-28T14:19:11.023Z,25.90
2022-10-28T14:22:06.828Z,25.40
2022-10-28T14:24:36.263Z,24.50
2022-10-28T14:27:09.312Z,23.30
2022-10-28T14:29:55.992Z,22.30
2022-10-28T14:32:31.919Z,21.70
2022-10-28T14:35:02.996Z,21.40
2022-10-28T14:38:06.870Z,21.20
2022-10-28T14:41:07.881Z,20.90
2022-10-28T14:44:02.339Z,20.70
2022-10-28T14:47:00.192Z,20.60
2022-10-28T14:49:31.757Z,20.40
2022-10-28T14:52:13.722Z,20.30
2022-10-28T14:54:58.127Z,20.20
2022-10-28T14:57:33.926Z,20.10
2022-10-28T15:00:08.492Z,20.10
2022-10-28T15:02:38.330Z,20.00
2022-10-28T15:05:21.837Z,19.90
2022-10-28T15:07:49.366Z,19.80
2022-10-28T15:10:27.001Z,19.70
2022-10-28T15:12:56.568Z,19.70
2022-10-28T15:15:28.928Z,19.70
2022-10-28T15:17:57.927Z,19.60
2022-10-28T15:20:32.393Z,19.50
2022-10-28T15:23:18.151Z,19.40
2022-10-28T15:26:05.051Z,19.20
2022-10-28T15:28:32.716Z,19.20
2022-10-28T15:31:00.088Z,19.10
2022-10-28T15:33:40.234Z,19.10
2022-10-28T15:36:24.766Z,19.00
2022-10-28T15:39:16.769Z,18.90
2022-10-28T15:41:53.792Z,18.80
2022-10-28T15:44:38.093Z,18.70
2022-10-28T15:47:32.857Z,18.70
2022-10-28T15:50:16.484Z,18.60
2022-10-28T15:52:57.369Z,18.50
2022-10-28T15:55:41.484Z,18.40
2022-10-28T15:58:19.474Z,18.40
2022-10-28T16:00:54.669Z,18.30
2022-10-28T16:03:46.638Z,18.20
2022-10-28T16:06:33.733Z,18.20
2022-10-28T16:09:32.361Z,18.10
2022-10-28T16:12:04.384Z,18.10
2022-10-28T16:14:43.276Z,18.00
2022-10-28T16:17:23.845Z,17.90
2022-10-28T16:20:02.921Z,17.80
2022-10-28T16:22:34.782Z,17.80
2022-10-28T16:25:02.013Z,17.80
2022-10-28T16:27:32.662Z,17.70
2022-10-28T16:30:00.135Z,17.70
2022-10-28T16:32:33.949Z,17.60
2022-10-28T16:35:03.427Z,17.60
2022-10-28T16:37:32.828Z,17.60
2022-10-28T16:40:00.199Z,17.50
2022-10-28T16:42:27.964Z,17.50
2022-10-28T16:44:58.571Z,17.50
2022-10-28T16:47:26.802Z,17.50
2022-10-28T16:49:57.654Z,17.50
2022-10-28T16:52:30.320Z,17.50
2022-10-28T16:54:58.856Z,17.50
2022-10-28T16:57:26.724Z,17.50
2022-10-28T16:59:54.505Z,17.40
2022-10-28T17:02:31.401Z,17.50
2022-10-28T17:04:59.556Z,17.50
2022-10-28T17:07:28.206Z,17.40
2022-10-28T17:09:56.969Z,17.40
2022-10-28T17:12:27.251Z,17.40
2022-10-28T17:14:55.058Z,17.50
2022-10-28T17:17:22.244Z,17.40
2022-10-28T17:19:49.642Z,17.50
2022-10-28T17:22:16.939Z,17.40
2022-10-28T17:24:44.535Z,17.50
2022-10-28T17:27:12.973Z,17.40
2022-10-28T17:29:40.208Z,17.30
2022-10-28T17:32:08.744Z,17.40
2022-10-28T17:34:36.334Z,17.40
2022-10-28T17:37:03.835Z,17.40
2022-10-28T17:39:31.053Z,17.30
2022-10-28T17:41:58.269Z,17.20
2022-10-28T17:44:25.638Z,17.30
2022-10-28T17:46:52.844Z,17.30
2022-10-28T17:49:20.217Z,17.20
2022-10-28T17:51:47.693Z,17.20
2022-10-28T17:54:15.599Z,17.10
2022-10-28T17:56:45.290Z,17.10
2022-10-28T17:59:12.450Z,17.00
2022-10-28T18:01:39.644Z,17.00
2022-10-28T18:04:08.362Z,16.90
2022-10-28T18:06:35.764Z,16.90
2022-10-28T18:09:03.675Z,16.90
2022-10-28T18:11:33.199Z,16.90
2022-10-28T18:14:04.312Z,16.90
2022-10-28T18:16:31.758Z,16.90
2022-10-28T18:19:05.371Z,17.00
2022-10-28T18:21:32.652Z,16.90
2022-10-28T18:24:06.139Z,16.90
2022-10-28T18:26:38.412Z,16.90
2022-10-28T18:29:10.075Z,17.00
2022-10-28T18:31:38.544Z,17.10
2022-10-28T18:34:05.656Z,17.10
2022-10-28T18:36:35.609Z,17.10
2022-10-28T18:39:07.901Z,17.10
2022-10-28T18:41:41.570Z,17.20
2022-10-28T18:44:14.301Z,17.20
2022-10-28T18:46:45.108Z,17.20
2022-10-28T18:49:12.596Z,17.10
2022-10-28T18:51:39.898Z,17.20
2022-10-28T18:54:07.026Z,17.10
2022-10-28T18:56:34.515Z,17.10
2022-10-28T18:59:05.017Z,17.10
2022-10-28T19:01:33.563Z,17.40
2022-10-28T19:04:04.183Z,17.10
2022-10-28T19:06:33.510Z,17.20
2022-10-28T19:09:04.164Z,17.20
2022-10-28T19:11:33.059Z,17.20
2022-10-28T19:14:03.718Z,17.20
2022-10-28T19:16:33.573Z,17.10
2022-10-28T19:19:03.454Z,17.20
2022-10-28T19:21:31.159Z,17.10
2022-10-28T19:23:58.704Z,17.10
2022-10-28T19:26:26.448Z,17.10
2022-10-28T19:28:54.649Z,17.00
2022-10-28T19:31:24.863Z,17.00
2022-10-28T19:33:54.143Z,17.00
2022-10-28T19:36:26.329Z,17.00
2022-10-28T19:38:54.817Z,17.00
2022-10-28T19:41:26.391Z,17.10
2022-10-28T19:44:02.190Z,17.10
2022-10-28T19:46:35.482Z,17.20
2022-10-28T19:49:06.094Z,17.30
2022-10-28T19:51:36.784Z,17.40
2022-10-28T19:54:09.257Z,17.40
2022-10-28T19:56:37.967Z,17.40
2022-10-28T19:59:06.601Z,17.40
2022-10-28T20:01:37.722Z,17.50
2022-10-28T20:04:05.941Z,17.50
2022-10-28T20:06:36.848Z,17.50
2022-10-28T20:09:04.971Z,17.50
2022-10-28T20:11:35.825Z,17.50
2022-10-28T20:14:08.363Z,17.40
2022-10-28T20:16:36.367Z,17.40
2022-10-28T20:19:03.461Z,17.60
2022-10-28T20:21:35.631Z,17.50
2022-10-28T20:24:06.130Z,17.50
2022-10-28T20:26:36.994Z,17.50
2022-10-28T20:29:06.548Z,17.50
2022-10-28T20:31:34.302Z,17.50
2022-10-28T20:34:06.419Z,17.60
2022-10-28T20:36:41.592Z,17.60
2022-10-28T20:39:16.230Z,17.70
2022-10-28T20:41:46.547Z,17.70
2022-10-28T20:44:13.821Z,17.70
2022-10-28T20:46:41.461Z,17.70
2022-10-28T20:49:09.825Z,17.70
2022-10-28T20:51:37.095Z,17.80
2022-10-28T20:54:04.423Z,17.80
2022-10-28T20:56:36.125Z,17.70
2022-10-28T20:59:04.019Z,17.70
2022-10-28T21:01:35.874Z,17.70
2022-10-28T21:04:08.766Z,17.70
2022-10-28T21:06:37.745Z,17.70
2022-10-28T21:09:05.355Z,17.80
2022-10-28T21:11:32.892Z,17.90
2022-10-28T21:14:01.939Z,18.00
2022-10-28T21:16:30.617Z,18.00
2022-10-28T21:18:59.334Z,18.10
2022-10-28T21:21:27.791Z,18.20
2022-10-28T21:23:55.173Z,18.40
2022-10-28T21:26:22.823Z,18.30
2022-10-28T21:28:53.332Z,18.40
2022-10-28T21:31:21.365Z,18.40
2022-10-28T21:36:19.636Z,18.30
2022-10-28T21:38:46.753Z,18.30
2022-10-28T21:41:17.488Z,18.30
2022-10-28T21:43:48.030Z,18.30
2022-10-28T21:46:19.560Z,18.30
2022-10-28T21:48:47.320Z,18.30
2022-10-28T21:51:16.701Z,18.30
2022-10-28T21:53:44.930Z,18.30
2022-10-28T21:56:19.294Z,18.30
2022-10-28T21:58:49.790Z,18.10
2022-10-28T22:01:23.096Z,18.20
2022-10-28T22:03:52.386Z,18.20
2022-10-28T22:06:19.590Z,18.10
2022-10-28T22:08:47.063Z,18.10
2022-10-28T22:11:20.308Z,18.10
2022-10-28T22:14:00.842Z,18.00
2022-10-28T22:16:30.572Z,18.00
2022-10-28T22:18:59.723Z,17.90
2022-10-28T22:21:30.458Z,17.90
2022-10-28T22:23:57.906Z,17.80
2022-10-28T22:26:28.968Z,17.80
2022-10-28T22:28:57.041Z,17.80
2022-10-28T22:31:28.559Z,17.90
2022-10-28T22:33:56.995Z,17.90
2022-10-28T22:36:26.712Z,17.90
2022-10-28T22:38:54.300Z,17.90
2022-10-28T22:41:29.995Z,17.90
2022-10-28T22:44:00.333Z,17.80
2022-10-28T22:46:31.067Z,17.90
2022-10-28T22:48:58.538Z,17.90
2022-10-28T22:51:25.855Z,17.80
2022-10-28T22:53:52.922Z,17.80
2022-10-28T22:56:23.441Z,17.70
2022-10-28T22:58:59.944Z,17.60
2022-10-28T23:01:29.186Z,17.60
2022-10-28T23:03:56.619Z,17.50
2022-10-28T23:06:26.612Z,17.50
2022-10-28T23:08:54.344Z,17.40
2022-10-28T23:11:22.632Z,17.40
2022-10-28T23:13:54.431Z,17.30
2022-10-28T23:16:23.122Z,17.30
2022-10-28T23:18:52.642Z,17.30
2022-10-28T23:21:22.808Z,17.20
2022-10-28T23:23:55.165Z,17.20
2022-10-28T23:26:23.024Z,17.10
2022-10-28T23:28:52.787Z,17.10
2022-10-28T23:31:21.189Z,17.10
2022-10-28T23:33:48.604Z,17.00
2022-10-28T23:36:16.946Z,17.10
2022-10-28T23:38:44.384Z,17.00
2022-10-28T23:41:18.609Z,17.00
2022-10-28T23:43:47.140Z,16.90
2022-10-28T23:46:14.301Z,16.90
2022-10-28T23:48:41.398Z,16.90
2022-10-28T23:51:09.004Z,16.90
2022-10-28T23:53:36.256Z,16.90
2022-10-28T23:56:04.057Z,16.90
2022-10-28T23:58:31.175Z,16.90
